sensor_id;sensor_type;location;lat;lon;timestamp;temperature;humidity
13928;DHT22;7036;50.834;4.718;2022-12-18T00:02:16;17.40;33.70
13928;DHT22;7036;50.834;4.718;2022-12-18T00:04:43;17.40;33.70
13928;DHT22;7036;50.834;4.718;2022-12-18T00:07:11;17.40;33.80
13928;DHT22;7036;50.834;4.718;2022-12-18T00:09:39;17.40;34.00
13928;DHT22;7036;50.834;4.718;2022-12-18T00:12:07;17.40;33.80
13928;DHT22;7036;50.834;4.718;2022-12-18T00:14:35;17.30;33.80
13928;DHT22;7036;50.834;4.718;2022-12-18T00:17:03;17.30;33.80
13928;DHT22;7036;50.834;4.718;2022-12-18T00:19:31;17.30;34.10
13928;DHT22;7036;50.834;4.718;2022-12-18T00:21:59;17.40;34.50
13928;DHT22;7036;50.834;4.718;2022-12-18T00:24:27;17.30;33.90
13928;DHT22;7036;50.834;4.718;2022-12-18T00:26:55;17.30;33.80
13928;DHT22;7036;50.834;4.718;2022-12-18T00:29:23;17.30;33.90
13928;DHT22;7036;50.834;4.718;2022-12-18T00:31:51;17.30;33.90
13928;DHT22;7036;50.834;4.718;2022-12-18T00:34:19;17.30;33.90
13928;DHT22;7036;50.834;4.718;2022-12-18T00:36:47;17.30;33.70
13928;DHT22;7036;50.834;4.718;2022-12-18T00:39:14;17.30;34.40
13928;DHT22;7036;50.834;4.718;2022-12-18T00:41:42;17.20;33.80
13928;DHT22;7036;50.834;4.718;2022-12-18T00:44:27;17.20;33.70
13928;DHT22;7036;50.834;4.718;2022-12-18T00:46:55;17.20;33.80
13928;DHT22;7036;50.834;4.718;2022-12-18T00:49:23;17.20;34.40
13928;DHT22;7036;50.834;4.718;2022-12-18T00:51:51;17.20;34.50
13928;DHT22;7036;50.834;4.718;2022-12-18T00:54:19;17.20;33.90
13928;DHT22;7036;50.834;4.718;2022-12-18T00:56:48;17.20;33.90
13928;DHT22;7036;50.834;4.718;2022-12-18T00:59:15;17.10;33.70
13928;DHT22;7036;50.834;4.718;2022-12-18T01:01:42;17.10;33.70
13928;DHT22;7036;50.834;4.718;2022-12-18T01:04:10;17.10;33.80
13928;DHT22;7036;50.834;4.718;2022-12-18T01:06:38;17.10;33.90
13928;DHT22;7036;50.834;4.718;2022-12-18T01:09:06;17.10;33.90
13928;DHT22;7036;50.834;4.718;2022-12-18T01:11:33;17.10;33.80
13928;DHT22;7036;50.834;4.718;2022-12-18T01:14:01;17.10;33.90
13928;DHT22;7036;50.834;4.718;2022-12-18T01:16:29;17.00;34.00
13928;DHT22;7036;50.834;4.718;2022-12-18T01:18:57;17.10;34.00
13928;DHT22;7036;50.834;4.718;2022-12-18T01:21:25;17.10;34.10
13928;DHT22;7036;50.834;4.718;2022-12-18T01:23:54;17.00;34.00
13928;DHT22;7036;50.834;4.718;2022-12-18T01:26:21;17.00;34.00
13928;DHT22;7036;50.834;4.718;2022-12-18T01:28:50;17.00;34.00
13928;DHT22;7036;50.834;4.718;2022-12-18T01:31:18;17.00;33.90
13928;DHT22;7036;50.834;4.718;2022-12-18T01:33:44;17.00;33.90
13928;DHT22;7036;50.834;4.718;2022-12-18T01:36:16;17.00;33.30
13928;DHT22;7036;50.834;4.718;2022-12-18T01:38:41;17.00;33.90
13928;DHT22;7036;50.834;4.718;2022-12-18T01:41:09;17.00;34.00
13928;DHT22;7036;50.834;4.718;2022-12-18T01:43:41;17.00;34.00
13928;DHT22;7036;50.834;4.718;2022-12-18T01:46:07;17.00;33.80
13928;DHT22;7036;50.834;4.718;2022-12-18T01:48:34;17.00;33.90
13928;DHT22;7036;50.834;4.718;2022-12-18T01:51:02;17.10;33.80
13928;DHT22;7036;50.834;4.718;2022-12-18T01:53:30;17.00;33.70
13928;DHT22;7036;50.834;4.718;2022-12-18T01:55:58;17.10;33.90
13928;DHT22;7036;50.834;4.718;2022-12-18T02:01:16;17.10;33.70
13928;DHT22;7036;50.834;4.718;2022-12-18T02:03:44;17.10;33.70
13928;DHT22;7036;50.834;4.718;2022-12-18T02:06:16;17.10;34.50
13928;DHT22;7036;50.834;4.718;2022-12-18T02:17:19;17.20;33.70
13928;DHT22;7036;50.834;4.718;2022-12-18T02:23:04;17.20;33.60
13928;DHT22;7036;50.834;4.718;2022-12-18T02:28:29;17.20;33.50
13928;DHT22;7036;50.834;4.718;2022-12-18T02:30:56;17.20;33.60
13928;DHT22;7036;50.834;4.718;2022-12-18T02:33:24;17.20;33.60
13928;DHT22;7036;50.834;4.718;2022-12-18T02:35:52;17.20;33.50
13928;DHT22;7036;50.834;4.718;2022-12-18T02:38:20;17.20;33.50
13928;DHT22;7036;50.834;4.718;2022-12-18T02:40:48;17.20;33.40
13928;DHT22;7036;50.834;4.718;2022-12-18T02:43:16;17.10;33.60
13928;DHT22;7036;50.834;4.718;2022-12-18T02:45:54;17.10;33.40
13928;DHT22;7036;50.834;4.718;2022-12-18T02:48:17;17.10;33.30
13928;DHT22;7036;50.834;4.718;2022-12-18T02:50:50;17.10;33.30
13928;DHT22;7036;50.834;4.718;2022-12-18T02:53:32;17.10;33.40
13928;DHT22;7036;50.834;4.718;2022-12-18T02:56:15;17.10;33.20
13928;DHT22;7036;50.834;4.718;2022-12-18T03:01:23;17.10;33.30
13928;DHT22;7036;50.834;4.718;2022-12-18T03:06:29;17.00;33.20
13928;DHT22;7036;50.834;4.718;2022-12-18T03:09:02;17.10;33.30
13928;DHT22;7036;50.834;4.718;2022-12-18T03:11:24;17.10;33.30
13928;DHT22;7036;50.834;4.718;2022-12-18T03:13:52;17.10;33.30
13928;DHT22;7036;50.834;4.718;2022-12-18T03:16:20;17.00;33.20
13928;DHT22;7036;50.834;4.718;2022-12-18T03:18:46;17.10;33.20
13928;DHT22;7036;50.834;4.718;2022-12-18T03:21:13;17.10;34.10
13928;DHT22;7036;50.834;4.718;2022-12-18T03:23:44;17.10;33.30
13928;DHT22;7036;50.834;4.718;2022-12-18T03:26:10;17.10;33.00
13928;DHT22;7036;50.834;4.718;2022-12-18T03:28:40;17.10;33.30
13928;DHT22;7036;50.834;4.718;2022-12-18T03:31:05;17.10;33.30
13928;DHT22;7036;50.834;4.718;2022-12-18T03:33:58;17.10;33.30
13928;DHT22;7036;50.834;4.718;2022-12-18T03:36:24;17.10;33.10
13928;DHT22;7036;50.834;4.718;2022-12-18T03:38:52;17.10;33.30
13928;DHT22;7036;50.834;4.718;2022-12-18T03:47:21;17.10;33.10
13928;DHT22;7036;50.834;4.718;2022-12-18T03:49:47;17.10;33.10
13928;DHT22;7036;50.834;4.718;2022-12-18T03:52:24;17.10;33.20
13928;DHT22;7036;50.834;4.718;2022-12-18T03:54:49;17.10;33.20
13928;DHT22;7036;50.834;4.718;2022-12-18T03:57:22;17.10;33.00
13928;DHT22;7036;50.834;4.718;2022-12-18T03:59:50;17.20;33.00
13928;DHT22;7036;50.834;4.718;2022-12-18T04:02:16;17.20;33.10
13928;DHT22;7036;50.834;4.718;2022-12-18T04:04:43;17.20;33.00
13928;DHT22;7036;50.834;4.718;2022-12-18T04:07:11;17.20;33.00
13928;DHT22;7036;50.834;4.718;2022-12-18T04:09:39;17.20;32.90
13928;DHT22;7036;50.834;4.718;2022-12-18T04:12:06;17.10;33.00
13928;DHT22;7036;50.834;4.718;2022-12-18T04:14:34;17.20;33.00
13928;DHT22;7036;50.834;4.718;2022-12-18T04:17:02;17.10;33.00
13928;DHT22;7036;50.834;4.718;2022-12-18T04:19:30;17.10;33.00
13928;DHT22;7036;50.834;4.718;2022-12-18T04:21:58;17.10;33.00
13928;DHT22;7036;50.834;4.718;2022-12-18T04:24:26;17.10;32.90
13928;DHT22;7036;50.834;4.718;2022-12-18T04:26:54;17.10;33.00
13928;DHT22;7036;50.834;4.718;2022-12-18T04:29:22;17.10;33.00
13928;DHT22;7036;50.834;4.718;2022-12-18T04:31:49;17.00;33.00
13928;DHT22;7036;50.834;4.718;2022-12-18T04:34:17;17.10;33.00
13928;DHT22;7036;50.834;4.718;2022-12-18T04:36:45;17.10;33.00
13928;DHT22;7036;50.834;4.718;2022-12-18T04:39:14;17.10;33.00
13928;DHT22;7036;50.834;4.718;2022-12-18T04:41:41;17.10;33.00
13928;DHT22;7036;50.834;4.718;2022-12-18T04:44:09;17.10;33.00
13928;DHT22;7036;50.834;4.718;2022-12-18T04:46:37;17.10;33.00
13928;DHT22;7036;50.834;4.718;2022-12-18T04:49:05;17.10;32.80
13928;DHT22;7036;50.834;4.718;2022-12-18T04:51:33;17.10;32.90
13928;DHT22;7036;50.834;4.718;2022-12-18T04:54:00;17.10;32.90
13928;DHT22;7036;50.834;4.718;2022-12-18T04:56:30;17.10;33.10
13928;DHT22;7036;50.834;4.718;2022-12-18T04:58:56;17.10;32.90
13928;DHT22;7036;50.834;4.718;2022-12-18T05:01:24;17.10;33.60
13928;DHT22;7036;50.834;4.718;2022-12-18T05:03:52;17.10;32.90
13928;DHT22;7036;50.834;4.718;2022-12-18T05:06:20;17.10;32.80
13928;DHT22;7036;50.834;4.718;2022-12-18T05:08:47;17.10;32.90
13928;DHT22;7036;50.834;4.718;2022-12-18T05:11:15;17.10;32.80
13928;DHT22;7036;50.834;4.718;2022-12-18T05:13:44;17.10;32.80
13928;DHT22;7036;50.834;4.718;2022-12-18T05:16:12;17.10;32.80
13928;DHT22;7036;50.834;4.718;2022-12-18T05:18:39;17.10;32.60
13928;DHT22;7036;50.834;4.718;2022-12-18T05:21:07;17.10;32.80
13928;DHT22;7036;50.834;4.718;2022-12-18T05:23:34;17.10;32.70
13928;DHT22;7036;50.834;4.718;2022-12-18T05:26:02;17.10;32.70
13928;DHT22;7036;50.834;4.718;2022-12-18T05:28:29;17.10;32.70
13928;DHT22;7036;50.834;4.718;2022-12-18T05:30:56;17.10;32.70
13928;DHT22;7036;50.834;4.718;2022-12-18T05:33:24;17.10;32.80
13928;DHT22;7036;50.834;4.718;2022-12-18T05:35:55;17.10;32.70
13928;DHT22;7036;50.834;4.718;2022-12-18T05:38:20;17.10;32.70
13928;DHT22;7036;50.834;4.718;2022-12-18T05:40:48;17.10;32.70
13928;DHT22;7036;50.834;4.718;2022-12-18T05:43:15;17.10;32.70
13928;DHT22;7036;50.834;4.718;2022-12-18T05:45:43;17.10;32.70
13928;DHT22;7036;50.834;4.718;2022-12-18T05:48:13;17.10;32.70
13928;DHT22;7036;50.834;4.718;2022-12-18T05:50:40;17.10;32.50
13928;DHT22;7036;50.834;4.718;2022-12-18T05:53:06;17.10;32.50
13928;DHT22;7036;50.834;4.718;2022-12-18T05:55:34;17.10;32.60
13928;DHT22;7036;50.834;4.718;2022-12-18T05:58:03;17.10;32.60
13928;DHT22;7036;50.834;4.718;2022-12-18T06:00:31;17.10;32.60
13928;DHT22;7036;50.834;4.718;2022-12-18T06:02:58;17.10;32.50
13928;DHT22;7036;50.834;4.718;2022-12-18T06:05:25;17.10;32.50
13928;DHT22;7036;50.834;4.718;2022-12-18T06:07:52;17.20;32.60
13928;DHT22;7036;50.834;4.718;2022-12-18T06:10:20;17.10;32.60
13928;DHT22;7036;50.834;4.718;2022-12-18T06:12:48;17.10;32.60
13928;DHT22;7036;50.834;4.718;2022-12-18T06:15:16;17.20;32.60
13928;DHT22;7036;50.834;4.718;2022-12-18T06:17:44;17.20;32.60
13928;DHT22;7036;50.834;4.718;2022-12-18T06:20:12;17.20;32.50
13928;DHT22;7036;50.834;4.718;2022-12-18T06:22:39;17.20;32.40
13928;DHT22;7036;50.834;4.718;2022-12-18T06:25:08;17.20;32.50
13928;DHT22;7036;50.834;4.718;2022-12-18T06:27:36;17.30;33.20
13928;DHT22;7036;50.834;4.718;2022-12-18T06:30:05;17.30;32.50
13928;DHT22;7036;50.834;4.718;2022-12-18T06:32:32;17.30;32.40
13928;DHT22;7036;50.834;4.718;2022-12-18T06:35:00;17.30;32.40
13928;DHT22;7036;50.834;4.718;2022-12-18T06:37:27;17.30;32.30
13928;DHT22;7036;50.834;4.718;2022-12-18T06:39:55;17.30;32.20
13928;DHT22;7036;50.834;4.718;2022-12-18T06:42:22;17.30;32.20
13928;DHT22;7036;50.834;4.718;2022-12-18T06:44:49;17.30;32.20
13928;DHT22;7036;50.834;4.718;2022-12-18T06:47:17;17.30;31.60
13928;DHT22;7036;50.834;4.718;2022-12-18T06:49:45;17.30;32.20
13928;DHT22;7036;50.834;4.718;2022-12-18T06:52:12;17.30;32.10
13928;DHT22;7036;50.834;4.718;2022-12-18T06:54:39;17.30;32.10
13928;DHT22;7036;50.834;4.718;2022-12-18T06:57:06;17.30;32.10
13928;DHT22;7036;50.834;4.718;2022-12-18T06:59:34;17.30;32.10
13928;DHT22;7036;50.834;4.718;2022-12-18T07:02:02;17.30;32.20
13928;DHT22;7036;50.834;4.718;2022-12-18T07:04:30;17.30;32.20
13928;DHT22;7036;50.834;4.718;2022-12-18T07:06:58;17.30;32.20
13928;DHT22;7036;50.834;4.718;2022-12-18T07:09:26;17.30;32.20
13928;DHT22;7036;50.834;4.718;2022-12-18T07:11:54;17.20;32.10
13928;DHT22;7036;50.834;4.718;2022-12-18T07:14:21;17.20;32.10
13928;DHT22;7036;50.834;4.718;2022-12-18T07:16:49;17.20;31.90
13928;DHT22;7036;50.834;4.718;2022-12-18T07:19:16;17.20;32.00
13928;DHT22;7036;50.834;4.718;2022-12-18T07:21:43;17.20;32.00
13928;DHT22;7036;50.834;4.718;2022-12-18T07:24:11;17.20;32.00
13928;DHT22;7036;50.834;4.718;2022-12-18T07:26:39;17.20;32.10
13928;DHT22;7036;50.834;4.718;2022-12-18T07:29:07;17.10;32.10
13928;DHT22;7036;50.834;4.718;2022-12-18T07:31:35;17.10;33.00
13928;DHT22;7036;50.834;4.718;2022-12-18T07:34:03;17.10;32.50
13928;DHT22;7036;50.834;4.718;2022-12-18T07:36:31;17.20;32.60
13928;DHT22;7036;50.834;4.718;2022-12-18T07:38:58;17.10;32.40
13928;DHT22;7036;50.834;4.718;2022-12-18T07:41:25;17.20;32.50
13928;DHT22;7036;50.834;4.718;2022-12-18T07:43:52;17.20;32.20
13928;DHT22;7036;50.834;4.718;2022-12-18T07:46:20;17.20;32.40
13928;DHT22;7036;50.834;4.718;2022-12-18T07:48:47;17.20;32.40
13928;DHT22;7036;50.834;4.718;2022-12-18T07:51:14;17.20;32.50
13928;DHT22;7036;50.834;4.718;2022-12-18T07:53:41;17.30;32.40
13928;DHT22;7036;50.834;4.718;2022-12-18T07:56:10;17.30;32.30
13928;DHT22;7036;50.834;4.718;2022-12-18T07:58:36;17.30;32.70
13928;DHT22;7036;50.834;4.718;2022-12-18T08:01:08;17.30;32.60
13928;DHT22;7036;50.834;4.718;2022-12-18T08:03:34;17.30;32.50
13928;DHT22;7036;50.834;4.718;2022-12-18T08:06:02;17.30;32.50
13928;DHT22;7036;50.834;4.718;2022-12-18T08:08:29;17.30;32.50
13928;DHT22;7036;50.834;4.718;2022-12-18T08:10:57;17.30;32.40
13928;DHT22;7036;50.834;4.718;2022-12-18T08:13:25;17.30;32.50
13928;DHT22;7036;50.834;4.718;2022-12-18T08:16:00;17.30;32.30
13928;DHT22;7036;50.834;4.718;2022-12-18T08:18:25;17.30;32.20
13928;DHT22;7036;50.834;4.718;2022-12-18T08:20:54;17.30;32.50
13928;DHT22;7036;50.834;4.718;2022-12-18T08:23:21;17.30;32.60
13928;DHT22;7036;50.834;4.718;2022-12-18T08:25:49;17.40;32.60
13928;DHT22;7036;50.834;4.718;2022-12-18T08:28:17;17.40;32.50
13928;DHT22;7036;50.834;4.718;2022-12-18T08:30:45;17.40;32.40
13928;DHT22;7036;50.834;4.718;2022-12-18T08:33:13;17.40;32.20
13928;DHT22;7036;50.834;4.718;2022-12-18T08:35:41;17.40;32.70
13928;DHT22;7036;50.834;4.718;2022-12-18T08:38:09;17.40;32.70
13928;DHT22;7036;50.834;4.718;2022-12-18T08:40:35;17.40;32.50
13928;DHT22;7036;50.834;4.718;2022-12-18T08:43:03;17.40;32.50
13928;DHT22;7036;50.834;4.718;2022-12-18T08:45:48;17.40;32.70
13928;DHT22;7036;50.834;4.718;2022-12-18T08:48:16;17.40;32.80
13928;DHT22;7036;50.834;4.718;2022-12-18T08:50:44;17.40;32.60
13928;DHT22;7036;50.834;4.718;2022-12-18T08:53:11;17.40;32.50
13928;DHT22;7036;50.834;4.718;2022-12-18T08:55:39;17.40;32.80
13928;DHT22;7036;50.834;4.718;2022-12-18T08:58:07;17.40;32.90
13928;DHT22;7036;50.834;4.718;2022-12-18T09:00:35;17.40;32.90
13928;DHT22;7036;50.834;4.718;2022-12-18T09:03:03;17.40;32.90
13928;DHT22;7036;50.834;4.718;2022-12-18T09:05:31;17.40;32.80
13928;DHT22;7036;50.834;4.718;2022-12-18T09:08:00;17.50;33.50
13928;DHT22;7036;50.834;4.718;2022-12-18T09:10:27;17.50;32.70
13928;DHT22;7036;50.834;4.718;2022-12-18T09:12:55;17.60;33.50
13928;DHT22;7036;50.834;4.718;2022-12-18T09:15:23;17.60;33.30
13928;DHT22;7036;50.834;4.718;2022-12-18T09:17:50;17.60;33.20
13928;DHT22;7036;50.834;4.718;2022-12-18T09:20:17;17.70;33.30
13928;DHT22;7036;50.834;4.718;2022-12-18T09:22:45;17.70;33.40
13928;DHT22;7036;50.834;4.718;2022-12-18T09:25:12;17.70;33.50
13928;DHT22;7036;50.834;4.718;2022-12-18T09:27:40;17.80;33.60
13928;DHT22;7036;50.834;4.718;2022-12-18T09:30:07;17.80;33.40
13928;DHT22;7036;50.834;4.718;2022-12-18T09:32:35;17.80;33.60
13928;DHT22;7036;50.834;4.718;2022-12-18T09:35:04;17.90;33.60
13928;DHT22;7036;50.834;4.718;2022-12-18T09:37:30;17.80;33.40
13928;DHT22;7036;50.834;4.718;2022-12-18T09:39:59;17.90;33.50
13928;DHT22;7036;50.834;4.718;2022-12-18T09:42:25;17.90;33.50
13928;DHT22;7036;50.834;4.718;2022-12-18T09:44:53;17.90;33.50
13928;DHT22;7036;50.834;4.718;2022-12-18T09:47:24;17.90;33.60
13928;DHT22;7036;50.834;4.718;2022-12-18T09:49:51;17.90;33.40
13928;DHT22;7036;50.834;4.718;2022-12-18T09:52:30;18.00;33.60
13928;DHT22;7036;50.834;4.718;2022-12-18T09:55:44;18.00;33.60
13928;DHT22;7036;50.834;4.718;2022-12-18T09:57:26;18.00;33.40
13928;DHT22;7036;50.834;4.718;2022-12-18T09:59:54;18.00;33.20
13928;DHT22;7036;50.834;4.718;2022-12-18T10:02:26;18.00;33.50
13928;DHT22;7036;50.834;4.718;2022-12-18T10:05:16;18.00;33.50
13928;DHT22;7036;50.834;4.718;2022-12-18T10:07:47;18.00;33.40
13928;DHT22;7036;50.834;4.718;2022-12-18T10:10:26;18.00;33.30
13928;DHT22;7036;50.834;4.718;2022-12-18T10:15:30;18.10;33.40
13928;DHT22;7036;50.834;4.718;2022-12-18T10:18:13;18.20;33.50
13928;DHT22;7036;50.834;4.718;2022-12-18T10:21:09;18.20;33.40
13928;DHT22;7036;50.834;4.718;2022-12-18T10:28:28;18.40;33.50
13928;DHT22;7036;50.834;4.718;2022-12-18T10:30:55;18.40;33.60
13928;DHT22;7036;50.834;4.718;2022-12-18T10:33:24;18.50;34.10
13928;DHT22;7036;50.834;4.718;2022-12-18T10:35:51;18.40;33.40
13928;DHT22;7036;50.834;4.718;2022-12-18T10:40:59;18.50;33.50
13928;DHT22;7036;50.834;4.718;2022-12-18T10:43:25;18.50;33.40
13928;DHT22;7036;50.834;4.718;2022-12-18T10:51:06;18.60;33.20
13928;DHT22;7036;50.834;4.718;2022-12-18T10:53:33;18.60;33.20
13928;DHT22;7036;50.834;4.718;2022-12-18T10:56:00;18.70;33.20
13928;DHT22;7036;50.834;4.718;2022-12-18T10:58:31;18.70;33.20
13928;DHT22;7036;50.834;4.718;2022-12-18T11:01:10;18.70;33.10
13928;DHT22;7036;50.834;4.718;2022-12-18T11:06:14;18.70;33.10
13928;DHT22;7036;50.834;4.718;2022-12-18T11:08:40;18.80;33.20
13928;DHT22;7036;50.834;4.718;2022-12-18T11:11:19;18.80;33.30
13928;DHT22;7036;50.834;4.718;2022-12-18T11:13:35;18.80;33.20
13928;DHT22;7036;50.834;4.718;2022-12-18T11:16:03;18.80;33.30
13928;DHT22;7036;50.834;4.718;2022-12-18T11:18:35;18.80;33.30
13928;DHT22;7036;50.834;4.718;2022-12-18T11:21:08;18.90;33.20
13928;DHT22;7036;50.834;4.718;2022-12-18T11:23:35;18.90;33.30
13928;DHT22;7036;50.834;4.718;2022-12-18T11:26:03;18.90;33.40
13928;DHT22;7036;50.834;4.718;2022-12-18T11:28:40;18.90;33.30
13928;DHT22;7036;50.834;4.718;2022-12-18T11:34:09;18.90;33.40
13928;DHT22;7036;50.834;4.718;2022-12-18T11:36:33;18.90;33.40
13928;DHT22;7036;50.834;4.718;2022-12-18T11:39:03;19.00;33.60
13928;DHT22;7036;50.834;4.718;2022-12-18T11:41:52;19.00;33.50
13928;DHT22;7036;50.834;4.718;2022-12-18T11:44:30;19.00;33.40
13928;DHT22;7036;50.834;4.718;2022-12-18T11:46:57;19.00;34.10
13928;DHT22;7036;50.834;4.718;2022-12-18T11:49:34;19.00;33.40
13928;DHT22;7036;50.834;4.718;2022-12-18T11:54:29;19.00;33.60
13928;DHT22;7036;50.834;4.718;2022-12-18T11:57:19;19.00;33.60
13928;DHT22;7036;50.834;4.718;2022-12-18T11:59:55;19.00;33.40
13928;DHT22;7036;50.834;4.718;2022-12-18T12:15:59;19.10;33.50
13928;DHT22;7036;50.834;4.718;2022-12-18T12:18:32;19.10;33.50
13928;DHT22;7036;50.834;4.718;2022-12-18T12:26:45;19.10;33.40
13928;DHT22;7036;50.834;4.718;2022-12-18T12:28:57;19.10;33.30
13928;DHT22;7036;50.834;4.718;2022-12-18T12:39:08;19.20;33.20
13928;DHT22;7036;50.834;4.718;2022-12-18T12:41:34;19.20;33.40
13928;DHT22;7036;50.834;4.718;2022-12-18T12:44:30;19.20;33.50
13928;DHT22;7036;50.834;4.718;2022-12-18T12:46:56;19.20;33.40
13928;DHT22;7036;50.834;4.718;2022-12-18T12:49:25;19.20;33.40
13928;DHT22;7036;50.834;4.718;2022-12-18T12:52:12;19.20;33.40
13928;DHT22;7036;50.834;4.718;2022-12-18T12:54:37;19.20;33.20
13928;DHT22;7036;50.834;4.718;2022-12-18T12:57:30;19.30;33.40
13928;DHT22;7036;50.834;4.718;2022-12-18T13:00:16;19.30;33.30
13928;DHT22;7036;50.834;4.718;2022-12-18T13:05:51;19.30;33.40
13928;DHT22;7036;50.834;4.718;2022-12-18T13:10:49;19.40;33.30
13928;DHT22;7036;50.834;4.718;2022-12-18T13:13:18;19.40;33.50
13928;DHT22;7036;50.834;4.718;2022-12-18T13:15:46;19.40;33.40
13928;DHT22;7036;50.834;4.718;2022-12-18T13:18:14;19.50;33.80
13928;DHT22;7036;50.834;4.718;2022-12-18T13:20:41;19.50;33.60
13928;DHT22;7036;50.834;4.718;2022-12-18T13:25:46;19.50;34.20
13928;DHT22;7036;50.834;4.718;2022-12-18T13:28:15;19.50;34.50
13928;DHT22;7036;50.834;4.718;2022-12-18T13:30:46;19.50;34.60
13928;DHT22;7036;50.834;4.718;2022-12-18T13:38:33;19.60;34.60
13928;DHT22;7036;50.834;4.718;2022-12-18T13:41:46;19.50;35.20
13928;DHT22;7036;50.834;4.718;2022-12-18T13:43:34;19.50;34.50
13928;DHT22;7036;50.834;4.718;2022-12-18T13:46:16;19.50;34.80
13928;DHT22;7036;50.834;4.718;2022-12-18T13:48:33;19.50;34.80
13928;DHT22;7036;50.834;4.718;2022-12-18T13:51:00;19.50;34.70
13928;DHT22;7036;50.834;4.718;2022-12-18T13:53:27;19.50;34.80
13928;DHT22;7036;50.834;4.718;2022-12-18T13:55:54;19.50;34.90
13928;DHT22;7036;50.834;4.718;2022-12-18T13:58:21;19.40;34.80
13928;DHT22;7036;50.834;4.718;2022-12-18T14:00:49;19.50;34.80
13928;DHT22;7036;50.834;4.718;2022-12-18T14:03:24;19.50;35.00
13928;DHT22;7036;50.834;4.718;2022-12-18T14:06:02;19.50;34.80
13928;DHT22;7036;50.834;4.718;2022-12-18T14:08:38;19.50;35.70
13928;DHT22;7036;50.834;4.718;2022-12-18T14:10:55;19.40;34.80
13928;DHT22;7036;50.834;4.718;2022-12-18T14:13:30;19.50;34.90
13928;DHT22;7036;50.834;4.718;2022-12-18T14:15:56;19.50;34.70
13928;DHT22;7036;50.834;4.718;2022-12-18T14:18:44;19.50;34.80
13928;DHT22;7036;50.834;4.718;2022-12-18T14:21:19;19.50;34.70
13928;DHT22;7036;50.834;4.718;2022-12-18T14:23:44;19.50;34.70
13928;DHT22;7036;50.834;4.718;2022-12-18T14:26:30;19.50;35.50
13928;DHT22;7036;50.834;4.718;2022-12-18T14:28:59;19.50;35.40
13928;DHT22;7036;50.834;4.718;2022-12-18T14:31:25;19.50;34.60
13928;DHT22;7036;50.834;4.718;2022-12-18T14:33:52;19.50;34.80
13928;DHT22;7036;50.834;4.718;2022-12-18T14:36:21;19.50;34.70
13928;DHT22;7036;50.834;4.718;2022-12-18T14:38:52;19.60;34.90
13928;DHT22;7036;50.834;4.718;2022-12-18T14:41:19;19.60;34.80
13928;DHT22;7036;50.834;4.718;2022-12-18T14:43:47;19.60;34.70
13928;DHT22;7036;50.834;4.718;2022-12-18T14:46:38;19.60;34.90
13928;DHT22;7036;50.834;4.718;2022-12-18T14:49:17;19.60;34.60
13928;DHT22;7036;50.834;4.718;2022-12-18T14:51:33;19.50;34.50
13928;DHT22;7036;50.834;4.718;2022-12-18T14:54:03;19.60;34.40
13928;DHT22;7036;50.834;4.718;2022-12-18T14:56:32;19.60;34.40
13928;DHT22;7036;50.834;4.718;2022-12-18T14:59:03;19.60;34.40
13928;DHT22;7036;50.834;4.718;2022-12-18T15:01:33;19.60;34.80
13928;DHT22;7036;50.834;4.718;2022-12-18T15:03:58;19.60;34.60
13928;DHT22;7036;50.834;4.718;2022-12-18T15:06:35;19.60;34.70
13928;DHT22;7036;50.834;4.718;2022-12-18T15:09:03;19.60;34.70
13928;DHT22;7036;50.834;4.718;2022-12-18T15:11:29;19.60;34.70
13928;DHT22;7036;50.834;4.718;2022-12-18T15:13:57;19.60;34.70
13928;DHT22;7036;50.834;4.718;2022-12-18T15:16:23;19.70;35.00
13928;DHT22;7036;50.834;4.718;2022-12-18T15:18:50;19.60;34.70
13928;DHT22;7036;50.834;4.718;2022-12-18T15:21:19;19.70;35.00
13928;DHT22;7036;50.834;4.718;2022-12-18T15:23:51;19.70;34.80
13928;DHT22;7036;50.834;4.718;2022-12-18T15:26:19;19.70;34.80
13928;DHT22;7036;50.834;4.718;2022-12-18T15:36:20;19.70;34.80
13928;DHT22;7036;50.834;4.718;2022-12-18T15:38:46;19.70;35.00
13928;DHT22;7036;50.834;4.718;2022-12-18T15:41:15;19.70;35.00
13928;DHT22;7036;50.834;4.718;2022-12-18T15:43:42;19.70;34.80
13928;DHT22;7036;50.834;4.718;2022-12-18T15:46:13;19.70;34.70
13928;DHT22;7036;50.834;4.718;2022-12-18T15:48:40;19.70;34.70
13928;DHT22;7036;50.834;4.718;2022-12-18T15:53:55;19.70;34.60
13928;DHT22;7036;50.834;4.718;2022-12-18T15:56:23;19.70;34.60
13928;DHT22;7036;50.834;4.718;2022-12-18T15:59:11;19.70;34.50
13928;DHT22;7036;50.834;4.718;2022-12-18T16:01:37;19.70;34.50
13928;DHT22;7036;50.834;4.718;2022-12-18T16:04:06;19.70;34.80
13928;DHT22;7036;50.834;4.718;2022-12-18T16:06:33;19.70;34.60
13928;DHT22;7036;50.834;4.718;2022-12-18T16:09:00;19.80;34.90
13928;DHT22;7036;50.834;4.718;2022-12-18T16:11:28;19.70;35.00
13928;DHT22;7036;50.834;4.718;2022-12-18T16:14:05;19.70;34.80
13928;DHT22;7036;50.834;4.718;2022-12-18T16:16:31;19.80;34.80
13928;DHT22;7036;50.834;4.718;2022-12-18T16:18:58;19.80;35.00
13928;DHT22;7036;50.834;4.718;2022-12-18T16:21:26;19.80;35.00
13928;DHT22;7036;50.834;4.718;2022-12-18T16:23:53;19.80;35.00
13928;DHT22;7036;50.834;4.718;2022-12-18T16:26:21;19.80;34.90
13928;DHT22;7036;50.834;4.718;2022-12-18T16:28:48;19.80;34.90
13928;DHT22;7036;50.834;4.718;2022-12-18T16:31:15;19.80;34.80
13928;DHT22;7036;50.834;4.718;2022-12-18T16:33:44;19.80;35.00
13928;DHT22;7036;50.834;4.718;2022-12-18T16:36:11;19.80;34.80
13928;DHT22;7036;50.834;4.718;2022-12-18T16:38:40;19.80;34.90
13928;DHT22;7036;50.834;4.718;2022-12-18T16:41:19;19.80;35.40
13928;DHT22;7036;50.834;4.718;2022-12-18T16:43:58;19.80;34.70
13928;DHT22;7036;50.834;4.718;2022-12-18T16:46:26;19.80;34.80
13928;DHT22;7036;50.834;4.718;2022-12-18T16:48:54;19.80;34.70
13928;DHT22;7036;50.834;4.718;2022-12-18T16:51:22;19.80;34.60
13928;DHT22;7036;50.834;4.718;2022-12-18T16:53:50;19.80;34.70
13928;DHT22;7036;50.834;4.718;2022-12-18T16:56:18;19.80;34.80
13928;DHT22;7036;50.834;4.718;2022-12-18T16:58:53;19.80;34.50
13928;DHT22;7036;50.834;4.718;2022-12-18T17:01:19;19.80;34.30
13928;DHT22;7036;50.834;4.718;2022-12-18T17:04:03;19.80;34.50
13928;DHT22;7036;50.834;4.718;2022-12-18T17:06:29;19.80;34.40
13928;DHT22;7036;50.834;4.718;2022-12-18T17:09:00;19.80;34.30
13928;DHT22;7036;50.834;4.718;2022-12-18T17:11:26;19.80;34.30
13928;DHT22;7036;50.834;4.718;2022-12-18T17:13:54;19.80;34.40
13928;DHT22;7036;50.834;4.718;2022-12-18T17:16:22;19.80;34.40
13928;DHT22;7036;50.834;4.718;2022-12-18T17:18:50;19.80;34.30
13928;DHT22;7036;50.834;4.718;2022-12-18T17:21:17;19.80;34.10
13928;DHT22;7036;50.834;4.718;2022-12-18T17:23:45;19.80;34.20
13928;DHT22;7036;50.834;4.718;2022-12-18T17:26:12;19.80;34.20
13928;DHT22;7036;50.834;4.718;2022-12-18T17:28:39;19.80;34.20
13928;DHT22;7036;50.834;4.718;2022-12-18T17:31:18;19.90;35.00
13928;DHT22;7036;50.834;4.718;2022-12-18T17:33:40;19.80;34.10
13928;DHT22;7036;50.834;4.718;2022-12-18T17:36:08;19.90;34.20
13928;DHT22;7036;50.834;4.718;2022-12-18T17:38:36;19.80;34.10
13928;DHT22;7036;50.834;4.718;2022-12-18T17:41:04;19.80;34.10